Time;durP1;ratioP1;P1;durP2;ratioP2;P2;SDS_P1;SDS_P2;PMS_P1;PMS_P2;Temp;Humidity;BMP_temperature;BMP_pressure;BME280_temperature;BME280_humidity;BME280_pressure;Samples;Min_cycle;Max_cycle;Signal;HPM_P1;HPM_P2
2024/01/18 00:01:48;;;;;;;;;;;-2.10;99.90;;;;;;5133965;27;20272;-31
2024/01/18 00:04:15;;;;;;;;;;;-2.10;99.90;;;;;;5132091;27;20005;-33
2024/01/18 00:06:41;;;;;;;;;;;-2.10;99.90;;;;;;5115582;27;19976;-32
2024/01/18 00:09:09;;;;;;;;;;;-2.10;99.90;;;;;;5115152;27;19980;-31
2024/01/18 00:11:36;;;;;;;;;;;-2.20;99.90;;;;;;5109504;28;20385;-31
2024/01/18 00:14:03;;;;;;;;;;;-2.20;99.90;;;;;;5115964;27;19939;-31
2024/01/18 00:16:29;;;;;;;;;;;-2.20;99.90;;;;;;5115250;27;19969;-32
2024/01/18 00:18:57;;;;;;;;;;;-2.30;99.90;;;;;;5133156;27;19975;-32
2024/01/18 00:21:23;;;;;;;;;;;-2.20;99.90;;;;;;5133237;27;19975;-33
2024/01/18 00:23:50;;;;;;;;;;;-2.30;99.90;;;;;;5111255;28;20375;-33
2024/01/18 00:26:18;;;;;;;;;;;-2.30;99.90;;;;;;5110945;27;19935;-32
2024/01/18 00:28:45;;;;;;;;;;;-2.40;99.90;;;;;;5134141;27;20301;-31
2024/01/18 00:31:11;;;;;;;;;;;-2.40;99.90;;;;;;5133169;27;19924;-32
2024/01/18 00:33:39;;;;;;;;;;;-2.40;99.90;;;;;;5111032;28;19967;-32
2024/01/18 00:36:06;;;;;;;;;;;-2.40;99.90;;;;;;5111590;28;19924;-32
2024/01/18 00:38:32;;;;;;;;;;;-2.40;99.90;;;;;;5124057;27;19975;-32
2024/01/18 00:40:59;;;;;;;;;;;-2.40;99.90;;;;;;5110870;28;19975;-32
2024/01/18 00:43:27;;;;;;;;;;;-2.40;99.90;;;;;;5113905;27;19949;-32
2024/01/18 00:45:54;;;;;;;;;;;-2.50;99.90;;;;;;5114532;27;19974;-31
2024/01/18 00:48:20;;;;;;;;;;;-2.50;99.90;;;;;;5132821;27;20294;-31
2024/01/18 00:50:47;;;;;;;;;;;-2.50;99.90;;;;;;5132413;27;19977;-31
2024/01/18 00:53:13;;;;;;;;;;;-2.40;99.90;;;;;;5114643;27;19970;-32
2024/01/18 00:55:40;;;;;;;;;;;-2.50;99.90;;;;;;5113797;27;19963;-31
2024/01/18 00:58:07;;;;;;;;;;;-2.60;99.90;;;;;;5109429;28;19981;-32
2024/01/18 01:00:35;;;;;;;;;;;-2.60;99.90;;;;;;5103219;28;19924;-32
2024/01/18 01:03:01;;;;;;;;;;;-2.60;99.90;;;;;;5119034;27;19932;-32
2024/01/18 01:05:28;;;;;;;;;;;-2.60;99.90;;;;;;5132894;27;19927;-35
2024/01/18 01:07:55;;;;;;;;;;;-2.60;99.90;;;;;;5132193;27;19939;-32
2024/01/18 01:10:21;;;;;;;;;;;-2.60;99.90;;;;;;5113132;27;19996;-33
2024/01/18 01:12:48;;;;;;;;;;;-2.60;99.90;;;;;;5114138;27;20431;-32
2024/01/18 01:15:15;;;;;;;;;;;-2.60;99.90;;;;;;5132299;27;19927;-31
2024/01/18 01:17:43;;;;;;;;;;;-2.70;99.90;;;;;;5114756;27;19976;-33
2024/01/18 01:20:09;;;;;;;;;;;-2.60;99.90;;;;;;5114627;27;19928;-32
2024/01/18 01:22:36;;;;;;;;;;;-2.70;99.90;;;;;;5113914;28;20027;-31
2024/01/18 01:25:02;;;;;;;;;;;-2.70;99.90;;;;;;5110428;27;20011;-32
2024/01/18 01:27:29;;;;;;;;;;;-2.70;99.90;;;;;;5113544;28;20006;-32
2024/01/18 01:29:56;;;;;;;;;;;-2.80;99.90;;;;;;5114766;28;19923;-32
2024/01/18 01:32:22;;;;;;;;;;;-2.80;99.90;;;;;;5130253;28;19928;-32
2024/01/18 01:34:50;;;;;;;;;;;-2.70;99.90;;;;;;5114419;28;19927;-32
2024/01/18 01:37:17;;;;;;;;;;;-2.80;99.90;;;;;;5112534;28;19976;-31
2024/01/18 01:39:44;;;;;;;;;;;-2.80;99.90;;;;;;5111862;28;19944;-31
2024/01/18 01:42:10;;;;;;;;;;;-2.80;99.90;;;;;;5112839;28;19935;-33
2024/01/18 01:44:37;;;;;;;;;;;-2.80;99.90;;;;;;5132037;28;19923;-32
2024/01/18 01:47:04;;;;;;;;;;;-2.90;99.90;;;;;;5111841;28;19968;-32
2024/01/18 01:49:30;;;;;;;;;;;-2.80;99.90;;;;;;5133266;28;20374;-31
2024/01/18 01:51:59;;;;;;;;;;;-2.90;99.90;;;;;;5113357;28;20008;-32
2024/01/18 01:54:29;;;;;;;;;;;-2.90;99.90;;;;;;5112692;28;19924;-31
2024/01/18 01:56:56;;;;;;;;;;;-2.90;99.90;;;;;;5113827;28;19930;-32
2024/01/18 01:59:23;;;;;;;;;;;-2.90;99.90;;;;;;5113564;28;19928;-32
2024/01/18 02:01:50;;;;;;;;;;;-2.90;99.90;;;;;;5111762;28;19923;-32
2024/01/18 02:04:25;;;;;;;;;;;-3.00;99.90;;;;;;5116264;28;19927;-32
2024/01/18 02:06:52;;;;;;;;;;;-3.10;99.90;;;;;;5113751;28;20102;-32
2024/01/18 02:09:20;;;;;;;;;;;-3.00;99.90;;;;;;5131079;28;19923;-32
2024/01/18 02:11:46;;;;;;;;;;;-3.10;99.90;;;;;;5100281;28;19923;-31
2024/01/18 02:14:13;;;;;;;;;;;-3.10;99.90;;;;;;5114071;28;19977;-32
2024/01/18 02:16:40;;;;;;;;;;;-3.10;99.90;;;;;;5113252;28;20078;-32
2024/01/18 02:19:06;;;;;;;;;;;-3.10;99.90;;;;;;5113857;28;19992;-33
2024/01/18 02:21:33;;;;;;;;;;;-3.10;99.90;;;;;;5124015;28;19924;-32
2024/01/18 02:24:00;;;;;;;;;;;-3.10;99.90;;;;;;5131736;28;20378;-32
2024/01/18 02:26:29;;;;;;;;;;;-3.20;99.90;;;;;;5114060;28;19987;-32
2024/01/18 02:28:56;;;;;;;;;;;-3.20;99.90;;;;;;5131682;28;20018;-33
2024/01/18 02:31:22;;;;;;;;;;;-3.20;99.90;;;;;;5113537;28;19928;-32
2024/01/18 02:33:49;;;;;;;;;;;-3.20;99.90;;;;;;5131064;28;20363;-32
2024/01/18 02:36:16;;;;;;;;;;;-3.30;99.90;;;;;;5116063;27;19968;-33
2024/01/18 02:38:42;;;;;;;;;;;-3.30;99.90;;;;;;5116945;27;19927;-32
2024/01/18 02:41:09;;;;;;;;;;;-3.30;99.90;;;;;;5117702;27;19931;-32
2024/01/18 02:43:37;;;;;;;;;;;-3.30;99.90;;;;;;5116855;27;20491;-32
2024/01/18 02:46:04;;;;;;;;;;;-3.30;99.90;;;;;;5117255;27;20560;-31
2024/01/18 02:48:30;;;;;;;;;;;-3.40;99.90;;;;;;5136234;27;20371;-31
2024/01/18 02:50:57;;;;;;;;;;;-3.40;99.90;;;;;;5115961;27;19969;-32
2024/01/18 02:53:24;;;;;;;;;;;-3.40;99.90;;;;;;5116556;27;20395;-31
2024/01/18 02:55:50;;;;;;;;;;;-3.40;99.90;;;;;;5115881;27;19923;-31
2024/01/18 02:58:17;;;;;;;;;;;-3.40;99.90;;;;;;5117237;27;19924;-32
2024/01/18 03:00:45;;;;;;;;;;;-3.40;99.90;;;;;;5114858;27;19967;-32
2024/01/18 03:03:12;;;;;;;;;;;-3.40;99.90;;;;;;5113553;27;19994;-33
2024/01/18 03:05:38;;;;;;;;;;;-3.40;99.90;;;;;;5132139;27;19923;-31
2024/01/18 03:08:05;;;;;;;;;;;-3.50;99.90;;;;;;5133147;27;19923;-32
2024/01/18 03:10:32;;;;;;;;;;;-3.50;99.90;;;;;;5116706;27;20363;-31
2024/01/18 03:12:59;;;;;;;;;;;-3.50;99.90;;;;;;5114900;27;19934;-31
2024/01/18 03:15:25;;;;;;;;;;;-3.50;99.90;;;;;;5116819;27;19984;-32
2024/01/18 03:17:53;;;;;;;;;;;-3.60;99.90;;;;;;5116688;27;20409;-31
2024/01/18 03:20:20;;;;;;;;;;;-3.60;99.90;;;;;;5114695;27;19923;-31
2024/01/18 03:22:46;;;;;;;;;;;-3.60;99.90;;;;;;5132701;27;19969;-30
2024/01/18 03:25:13;;;;;;;;;;;-3.60;99.90;;;;;;5116598;27;19992;-31
2024/01/18 03:27:40;;;;;;;;;;;-3.60;99.90;;;;;;5134784;27;19949;-31
2024/01/18 03:30:07;;;;;;;;;;;-3.60;99.90;;;;;;5134473;27;19971;-31
2024/01/18 03:32:34;;;;;;;;;;;-3.60;99.90;;;;;;5134348;27;20412;-32
2024/01/18 03:35:02;;;;;;;;;;;-3.60;99.90;;;;;;5113864;27;20366;-31
2024/01/18 03:37:28;;;;;;;;;;;-3.70;99.90;;;;;;5115676;27;19953;-31
2024/01/18 03:39:55;;;;;;;;;;;-3.60;99.90;;;;;;5115183;27;19923;-31
2024/01/18 03:42:21;;;;;;;;;;;-3.70;99.90;;;;;;5097714;28;19978;-31
2024/01/18 03:44:48;;;;;;;;;;;-3.70;99.90;;;;;;5112203;27;20442;-32
2024/01/18 03:47:15;;;;;;;;;;;-3.70;99.90;;;;;;5133064;27;19924;-32
2024/01/18 03:49:42;;;;;;;;;;;-3.70;99.90;;;;;;5133398;27;19923;-33
2024/01/18 03:52:12;;;;;;;;;;;-3.70;99.90;;;;;;5114447;27;19931;-32
2024/01/18 03:54:39;;;;;;;;;;;-3.80;99.90;;;;;;5133295;27;20342;-33
2024/01/18 03:57:05;;;;;;;;;;;-3.80;99.90;;;;;;5115159;27;19959;-32
2024/01/18 03:59:32;;;;;;;;;;;-3.80;99.90;;;;;;5134410;27;19923;-35
2024/01/18 04:01:59;;;;;;;;;;;-3.80;99.90;;;;;;5113769;27;19984;-33
2024/01/18 04:04:26;;;;;;;;;;;-3.70;99.90;;;;;;5128049;27;19924;-32
2024/01/18 04:06:53;;;;;;;;;;;-3.80;99.90;;;;;;5129236;27;19923;-32
2024/01/18 04:09:21;;;;;;;;;;;-3.80;99.90;;;;;;5114893;27;19975;-32
2024/01/18 04:11:47;;;;;;;;;;;-3.80;99.90;;;;;;5115134;27;19923;-32
2024/01/18 04:14:14;;;;;;;;;;;-3.90;99.90;;;;;;5113641;27;19923;-33
2024/01/18 04:16:40;;;;;;;;;;;-3.80;99.90;;;;;;5112625;27;19923;-33
2024/01/18 04:19:07;;;;;;;;;;;-3.80;99.90;;;;;;5114516;27;19992;-34
2024/01/18 04:21:34;;;;;;;;;;;-3.80;99.90;;;;;;5132610;27;20371;-31
2024/01/18 04:24:00;;;;;;;;;;;-3.90;99.90;;;;;;5111943;27;19970;-32
2024/01/18 04:26:31;;;;;;;;;;;-3.90;99.90;;;;;;5130623;27;19927;-34
2024/01/18 04:28:57;;;;;;;;;;;-3.90;99.90;;;;;;5115163;27;20329;-31
2024/01/18 04:31:24;;;;;;;;;;;-3.80;99.90;;;;;;5114497;27;20419;-33
2024/01/18 04:33:51;;;;;;;;;;;-3.80;99.90;;;;;;5114875;27;19923;-32
2024/01/18 04:36:17;;;;;;;;;;;-3.90;99.90;;;;;;5111796;27;19923;-33
2024/01/18 04:38:44;;;;;;;;;;;-3.80;99.90;;;;;;5132955;27;19976;-30
2024/01/18 04:41:11;;;;;;;;;;;-3.80;99.90;;;;;;5132548;27;19954;-32
2024/01/18 04:43:39;;;;;;;;;;;-3.90;99.90;;;;;;5113147;27;20355;-32
2024/01/18 04:46:05;;;;;;;;;;;-3.90;99.90;;;;;;5112914;27;19927;-31
2024/01/18 04:48:32;;;;;;;;;;;-3.90;99.90;;;;;;5132272;27;20280;-31
2024/01/18 04:50:59;;;;;;;;;;;-3.90;99.90;;;;;;5115129;27;19924;-31
2024/01/18 04:53:25;;;;;;;;;;;-3.90;99.90;;;;;;5114188;27;19969;-32
2024/01/18 04:55:53;;;;;;;;;;;-4.00;99.90;;;;;;5113403;27;19931;-31
2024/01/18 04:58:20;;;;;;;;;;;-4.00;99.90;;;;;;5113865;27;19927;-31
2024/01/18 05:00:48;;;;;;;;;;;-4.00;99.90;;;;;;5110855;27;19978;-32
2024/01/18 05:03:14;;;;;;;;;;;-4.00;99.90;;;;;;5114926;27;20432;-31
2024/01/18 05:05:41;;;;;;;;;;;-3.90;99.90;;;;;;5124432;27;19927;-31
2024/01/18 05:08:08;;;;;;;;;;;-3.90;99.90;;;;;;5114494;28;19945;-31
2024/01/18 05:10:35;;;;;;;;;;;-4.00;99.90;;;;;;5113295;28;19958;-33
2024/01/18 05:13:01;;;;;;;;;;;-4.00;99.90;;;;;;5130716;27;19983;-32
2024/01/18 05:15:28;;;;;;;;;;;-4.00;99.90;;;;;;5113686;27;19923;-31
2024/01/18 05:17:57;;;;;;;;;;;-4.00;99.90;;;;;;5113833;27;19924;-31
2024/01/18 05:20:24;;;;;;;;;;;-4.00;99.90;;;;;;5132165;27;19923;-33
2024/01/18 05:22:50;;;;;;;;;;;-4.00;99.90;;;;;;5114395;28;20031;-32
2024/01/18 05:25:17;;;;;;;;;;;-3.90;99.90;;;;;;5113971;27;19988;-32
2024/01/18 05:27:44;;;;;;;;;;;-4.00;99.90;;;;;;5114291;27;20363;-32
2024/01/18 05:30:11;;;;;;;;;;;-4.00;99.90;;;;;;5131065;28;19984;-32
2024/01/18 05:32:38;;;;;;;;;;;-4.00;99.90;;;;;;5131673;28;19976;-33
2024/01/18 05:35:06;;;;;;;;;;;-4.00;99.90;;;;;;5112708;28;19923;-33
2024/01/18 05:37:33;;;;;;;;;;;-4.00;99.90;;;;;;5113262;28;19924;-33
2024/01/18 05:39:59;;;;;;;;;;;-4.10;99.90;;;;;;5132464;28;19979;-31
2024/01/18 05:42:27;;;;;;;;;;;-4.10;99.90;;;;;;5111629;28;20298;-32
2024/01/18 05:44:54;;;;;;;;;;;-4.10;99.90;;;;;;5111025;28;20019;-32
2024/01/18 05:47:21;;;;;;;;;;;-4.10;99.90;;;;;;5113484;28;19923;-32
2024/01/18 05:49:48;;;;;;;;;;;-4.00;99.90;;;;;;5113450;28;19929;-32
2024/01/18 05:52:16;;;;;;;;;;;-4.10;99.90;;;;;;5110849;28;19923;-32
2024/01/18 05:54:43;;;;;;;;;;;-4.10;99.90;;;;;;5111266;28;19923;-32
2024/01/18 05:57:09;;;;;;;;;;;-4.10;99.90;;;;;;5112671;28;19927;-31
2024/01/18 05:59:36;;;;;;;;;;;-4.10;99.90;;;;;;5117830;28;19978;-32
2024/01/18 06:02:03;;;;;;;;;;;-4.10;99.90;;;;;;5107493;28;19924;-32
2024/01/18 06:04:30;;;;;;;;;;;-4.10;99.90;;;;;;5112913;28;20036;-32
2024/01/18 06:06:57;;;;;;;;;;;-4.20;99.90;;;;;;5114000;28;19930;-30
2024/01/18 06:09:25;;;;;;;;;;;-4.20;99.90;;;;;;5113041;27;19992;-31
2024/01/18 06:11:52;;;;;;;;;;;-4.20;99.90;;;;;;5117483;27;19924;-31
2024/01/18 06:14:18;;;;;;;;;;;-4.20;99.90;;;;;;5135007;27;20272;-33
2024/01/18 06:16:45;;;;;;;;;;;-4.20;99.90;;;;;;5116515;27;19932;-32
2024/01/18 06:19:11;;;;;;;;;;;-4.20;99.90;;;;;;5135150;27;19967;-31
2024/01/18 06:21:38;;;;;;;;;;;-4.20;99.90;;;;;;5117167;27;19924;-33
2024/01/18 06:24:05;;;;;;;;;;;-4.20;99.90;;;;;;5115588;27;20383;-31
2024/01/18 06:26:33;;;;;;;;;;;-4.20;99.90;;;;;;5134499;27;19923;-32
2024/01/18 06:29:00;;;;;;;;;;;-4.20;99.90;;;;;;5116676;27;19928;-32
2024/01/18 06:31:27;;;;;;;;;;;-4.30;99.90;;;;;;5116637;27;19988;-32
2024/01/18 06:33:53;;;;;;;;;;;-4.20;99.90;;;;;;5115740;27;19923;-31
2024/01/18 06:36:22;;;;;;;;;;;-4.30;99.90;;;;;;5117166;27;19960;-32
2024/01/18 06:38:49;;;;;;;;;;;-4.20;99.90;;;;;;5114901;27;19924;-32
2024/01/18 06:41:15;;;;;;;;;;;-4.20;99.90;;;;;;5116373;27;19928;-31
2024/01/18 06:43:43;;;;;;;;;;;-4.20;99.90;;;;;;5116844;27;19923;-31
2024/01/18 06:46:15;;;;;;;;;;;-4.20;99.90;;;;;;5111497;27;19927;-32
2024/01/18 06:48:42;;;;;;;;;;;-4.20;99.90;;;;;;5104500;28;20372;-32
2024/01/18 06:51:09;;;;;;;;;;;-4.20;99.90;;;;;;5129525;27;19984;-32
2024/01/18 06:53:35;;;;;;;;;;;-4.30;99.90;;;;;;5113766;27;20015;-31
2024/01/18 06:56:03;;;;;;;;;;;-4.20;99.90;;;;;;5132629;27;20268;-31
2024/01/18 06:58:29;;;;;;;;;;;-4.20;99.90;;;;;;5129851;27;20312;-32
2024/01/18 07:00:57;;;;;;;;;;;-4.30;99.90;;;;;;5133441;27;19923;-34
2024/01/18 07:03:25;;;;;;;;;;;-4.20;99.90;;;;;;5115172;27;20066;-33
2024/01/18 07:05:51;;;;;;;;;;;-4.20;99.90;;;;;;5131871;27;20306;-31
2024/01/18 07:08:18;;;;;;;;;;;-4.30;99.90;;;;;;5114652;27;19968;-31
2024/01/18 07:10:48;;;;;;;;;;;-4.20;99.90;;;;;;5113499;27;19924;-32
2024/01/18 07:13:14;;;;;;;;;;;-4.20;99.90;;;;;;5096551;28;20413;-34
2024/01/18 07:15:41;;;;;;;;;;;-4.30;99.90;;;;;;5129978;27;19975;-32
2024/01/18 07:18:09;;;;;;;;;;;-4.30;99.90;;;;;;5116311;27;19923;-32
2024/01/18 07:20:36;;;;;;;;;;;-4.30;99.90;;;;;;5115112;27;19923;-32
2024/01/18 07:23:02;;;;;;;;;;;-4.30;99.90;;;;;;5113228;27;19977;-32
2024/01/18 07:25:29;;;;;;;;;;;-4.00;99.90;;;;;;5114180;27;19974;-32
2024/01/18 07:27:56;;;;;;;;;;;-4.40;99.90;;;;;;5103665;27;19931;-31
2024/01/18 07:30:23;;;;;;;;;;;-4.40;99.90;;;;;;5113083;27;20367;-32
2024/01/18 07:32:49;;;;;;;;;;;-4.40;99.90;;;;;;5108229;27;19976;-33
2024/01/18 07:35:17;;;;;;;;;;;-4.40;99.90;;;;;;5116320;27;19935;-32
2024/01/18 07:37:44;;;;;;;;;;;-4.40;99.90;;;;;;5132940;27;19927;-32
2024/01/18 07:40:11;;;;;;;;;;;-4.40;99.90;;;;;;5112277;27;19980;-30
2024/01/18 07:42:37;;;;;;;;;;;-4.40;99.90;;;;;;5130762;27;19946;-31
2024/01/18 07:45:05;;;;;;;;;;;-4.40;99.90;;;;;;5113727;27;19923;-32
2024/01/18 07:47:32;;;;;;;;;;;-4.40;99.90;;;;;;5112645;27;20354;-33
2024/01/18 07:49:58;;;;;;;;;;;-4.40;99.90;;;;;;5109218;27;19971;-31
2024/01/18 07:52:26;;;;;;;;;;;-4.40;99.90;;;;;;5111637;27;19923;-31
2024/01/18 07:54:53;;;;;;;;;;;-4.30;99.90;;;;;;5110999;27;19927;-32
2024/01/18 07:57:19;;;;;;;;;;;-4.40;99.90;;;;;;5110097;27;20019;-31
2024/01/18 07:59:46;;;;;;;;;;;-4.40;99.90;;;;;;5125938;27;19927;-32
2024/01/18 08:02:12;;;;;;;;;;;-4.30;99.90;;;;;;5113581;27;20397;-31
2024/01/18 08:04:38;;;;;;;;;;;-4.40;99.90;;;;;;5113841;27;19927;-31
2024/01/18 08:07:05;;;;;;;;;;;-4.40;99.90;;;;;;5112631;27;20472;-32
2024/01/18 08:09:33;;;;;;;;;;;-4.30;99.90;;;;;;5125579;27;19927;-31
2024/01/18 08:11:59;;;;;;;;;;;-4.30;99.90;;;;;;5114029;27;19968;-30
2024/01/18 08:14:26;;;;;;;;;;;-4.30;99.90;;;;;;5109530;27;20011;-31
2024/01/18 08:16:54;;;;;;;;;;;-4.30;99.90;;;;;;5114579;27;19935;-31
2024/01/18 08:19:21;;;;;;;;;;;-4.30;99.90;;;;;;5115237;27;19931;-31
2024/01/18 08:21:48;;;;;;;;;;;-4.30;99.90;;;;;;5115122;27;19927;-31
2024/01/18 08:24:14;;;;;;;;;;;-4.20;99.90;;;;;;5115153;27;19923;-32
2024/01/18 08:26:43;;;;;;;;;;;-4.20;99.90;;;;;;5131904;27;20348;-31
2024/01/18 08:29:10;;;;;;;;;;;-4.10;99.90;;;;;;5114435;27;20436;-31
2024/01/18 08:31:36;;;;;;;;;;;-4.00;99.90;;;;;;5133142;27;19987;-32
2024/01/18 08:34:07;;;;;;;;;;;-4.00;99.90;;;;;;5105267;27;19970;-31
2024/01/18 08:36:33;;;;;;;;;;;-4.00;99.90;;;;;;5114854;27;20036;-32
2024/01/18 08:39:00;;;;;;;;;;;-4.00;99.90;;;;;;5133519;27;19923;-32
2024/01/18 08:41:26;;;;;;;;;;;-3.90;99.90;;;;;;5133800;27;19980;-33
2024/01/18 08:43:54;;;;;;;;;;;-3.90;99.90;;;;;;5133543;27;19923;-32
2024/01/18 08:46:21;;;;;;;;;;;-3.90;99.90;;;;;;5114941;27;19930;-34
2024/01/18 08:48:48;;;;;;;;;;;-3.90;99.90;;;;;;5133314;27;20374;-32
2024/01/18 08:51:14;;;;;;;;;;;-3.90;99.90;;;;;;5115115;27;19968;-32
2024/01/18 08:53:41;;;;;;;;;;;-3.80;99.90;;;;;;5113553;27;19927;-32
2024/01/18 08:56:08;;;;;;;;;;;-3.80;99.90;;;;;;5132171;27;20011;-32
2024/01/18 08:58:35;;;;;;;;;;;-3.70;99.90;;;;;;5132817;27;19977;-30
2024/01/18 09:01:03;;;;;;;;;;;-3.70;99.90;;;;;;5132999;27;19927;-30
2024/01/18 09:03:29;;;;;;;;;;;-3.60;99.90;;;;;;5114400;27;20351;-31
2024/01/18 09:05:56;;;;;;;;;;;-3.50;99.90;;;;;;5129758;27;20366;-31
2024/01/18 09:08:23;;;;;;;;;;;-3.40;99.90;;;;;;5113620;27;19924;-33
2024/01/18 09:10:49;;;;;;;;;;;-3.30;99.90;;;;;;5114388;27;19930;-31
2024/01/18 09:13:16;;;;;;;;;;;-3.20;99.90;;;;;;5114608;27;19931;-31
2024/01/18 09:15:43;;;;;;;;;;;-2.80;99.90;;;;;;5114358;27;19928;-31
2024/01/18 09:18:11;;;;;;;;;;;-2.90;99.90;;;;;;5113598;27;19953;-30
2024/01/18 09:20:38;;;;;;;;;;;-2.90;99.90;;;;;;5130382;27;19924;-31
2024/01/18 09:23:04;;;;;;;;;;;-2.80;99.90;;;;;;5132365;27;19924;-32
2024/01/18 09:25:31;;;;;;;;;;;-2.70;99.90;;;;;;5130663;27;19927;-31
2024/01/18 09:27:58;;;;;;;;;;;-2.60;99.90;;;;;;5114374;27;19924;-31
2024/01/18 09:30:24;;;;;;;;;;;-2.50;99.90;;;;;;5114284;28;20278;-31
2024/01/18 09:32:51;;;;;;;;;;;-2.50;99.90;;;;;;5131879;28;19927;-31
2024/01/18 09:35:19;;;;;;;;;;;-2.30;99.90;;;;;;5132662;28;19984;-32
2024/01/18 09:37:45;;;;;;;;;;;-2.20;99.90;;;;;;5114176;28;19976;-31
2024/01/18 09:40:12;;;;;;;;;;;-2.10;99.90;;;;;;5132387;28;19977;-31
2024/01/18 09:42:39;;;;;;;;;;;-2.00;99.90;;;;;;5114576;28;19923;-33
2024/01/18 09:45:07;;;;;;;;;;;-1.80;99.90;;;;;;5116951;27;19992;-30
2024/01/18 09:47:34;;;;;;;;;;;-1.70;99.90;;;;;;5113110;27;19930;-32
2024/01/18 09:50:01;;;;;;;;;;;-1.50;99.90;;;;;;5137304;27;19930;-31
2024/01/18 09:52:29;;;;;;;;;;;-1.40;99.90;;;;;;5118322;27;19939;-31
2024/01/18 09:54:55;;;;;;;;;;;-1.20;99.90;;;;;;5118120;27;19968;-32
2024/01/18 09:57:25;;;;;;;;;;;-1.10;99.90;;;;;;5136982;27;19973;-32
2024/01/18 09:59:52;;;;;;;;;;;-1.00;99.90;;;;;;5135795;27;19974;-33
2024/01/18 10:02:19;;;;;;;;;;;-0.90;99.90;;;;;;5118360;27;19976;-31
2024/01/18 10:04:46;;;;;;;;;;;-0.70;99.90;;;;;;5111253;28;20010;-32
2024/01/18 10:07:12;;;;;;;;;;;-0.60;99.90;;;;;;5102357;27;19923;-33
2024/01/18 10:09:40;;;;;;;;;;;-0.50;99.90;;;;;;5134932;27;20116;-32
2024/01/18 10:12:07;;;;;;;;;;;-0.40;99.90;;;;;;5117275;27;19941;-32
2024/01/18 10:14:41;;;;;;;;;;;-0.40;99.90;;;;;;5136631;27;19976;-32
2024/01/18 10:17:08;;;;;;;;;;;-0.20;99.90;;;;;;5098522;28;19923;-32
2024/01/18 10:19:35;;;;;;;;;;;-0.10;99.90;;;;;;5135156;27;19996;-31
2024/01/18 10:22:02;;;;;;;;;;;0.00;99.90;;;;;;5118550;27;20292;-32
2024/01/18 10:24:29;;;;;;;;;;;0.10;99.90;;;;;;5136666;27;20291;-31
2024/01/18 10:27:04;;;;;;;;;;;0.20;99.90;;;;;;5117033;27;19974;-31
2024/01/18 10:29:32;;;;;;;;;;;0.30;99.90;;;;;;5118467;27;19931;-31
2024/01/18 10:31:59;;;;;;;;;;;0.50;99.90;;;;;;5135943;27;19923;-34
2024/01/18 10:34:26;;;;;;;;;;;0.40;99.90;;;;;;5136029;27;19923;-33
2024/01/18 10:36:52;;;;;;;;;;;0.50;99.90;;;;;;5116796;27;19928;-31
2024/01/18 10:39:20;;;;;;;;;;;0.60;99.90;;;;;;5136122;27;19963;-31
2024/01/18 10:41:46;;;;;;;;;;;0.60;99.90;;;;;;5135979;27;19976;-32
2024/01/18 10:44:15;;;;;;;;;;;0.70;99.90;;;;;;5118228;27;19930;-34
2024/01/18 10:46:42;;;;;;;;;;;0.90;99.90;;;;;;5117853;27;19923;-31
2024/01/18 10:49:08;;;;;;;;;;;1.00;99.90;;;;;;5136186;27;19923;-31
2024/01/18 10:51:35;;;;;;;;;;;1.10;99.90;;;;;;5136321;27;19969;-31
2024/01/18 10:54:02;;;;;;;;;;;1.10;99.90;;;;;;5117723;27;19927;-30
2024/01/18 10:56:29;;;;;;;;;;;1.10;99.90;;;;;;5114034;27;20043;-30
2024/01/18 10:58:55;;;;;;;;;;;1.10;99.90;;;;;;5136040;27;20366;-32
2024/01/18 11:01:23;;;;;;;;;;;1.20;99.90;;;;;;5135784;27;19927;-31
2024/01/18 11:03:50;;;;;;;;;;;1.20;99.90;;;;;;5115612;27;19927;-31
2024/01/18 11:06:16;;;;;;;;;;;1.20;99.90;;;;;;5135706;27;20355;-33
2024/01/18 11:08:43;;;;;;;;;;;1.30;99.90;;;;;;5135565;27;19953;-32
2024/01/18 11:11:10;;;;;;;;;;;1.30;99.90;;;;;;5117715;27;19927;-33
2024/01/18 11:13:39;;;;;;;;;;;1.40;99.90;;;;;;5117280;27;19924;-32
2024/01/18 11:16:06;;;;;;;;;;;1.50;99.90;;;;;;5135711;27;19923;-32
2024/01/18 11:18:35;;;;;;;;;;;1.50;99.90;;;;;;5135456;27;19976;-33
2024/01/18 11:21:04;;;;;;;;;;;1.60;99.90;;;;;;5135045;27;20443;-33
2024/01/18 11:23:34;;;;;;;;;;;1.60;99.90;;;;;;5116899;27;19924;-34
2024/01/18 11:26:01;;;;;;;;;;;1.60;99.90;;;;;;5135816;27;19928;-32
2024/01/18 11:28:28;;;;;;;;;;;1.60;99.90;;;;;;5135731;27;19965;-33
2024/01/18 11:30:55;;;;;;;;;;;1.60;99.90;;;;;;5135517;27;19976;-35
2024/01/18 11:33:21;;;;;;;;;;;1.70;99.90;;;;;;5117194;27;19923;-32
2024/01/18 11:35:50;;;;;;;;;;;1.70;99.90;;;;;;5134073;27;19923;-33
2024/01/18 11:38:17;;;;;;;;;;;1.80;99.90;;;;;;5116451;27;19924;-31
2024/01/18 11:40:44;;;;;;;;;;;1.90;99.90;;;;;;5117363;27;20418;-32
2024/01/18 11:43:11;;;;;;;;;;;2.00;99.90;;;;;;5117062;27;19931;-31
2024/01/18 11:45:38;;;;;;;;;;;2.10;99.90;;;;;;5116706;27;20324;-31
2024/01/18 11:48:05;;;;;;;;;;;2.10;99.90;;;;;;5116695;27;19923;-32
2024/01/18 11:50:31;;;;;;;;;;;2.30;99.90;;;;;;5116777;27;19923;-33
2024/01/18 11:53:00;;;;;;;;;;;2.40;99.90;;;;;;5116430;27;19927;-31
2024/01/18 11:55:26;;;;;;;;;;;2.60;99.90;;;;;;5116526;27;19958;-32
2024/01/18 11:57:53;;;;;;;;;;;2.70;99.90;;;;;;5116928;27;19931;-33
2024/01/18 12:00:20;;;;;;;;;;;2.70;99.90;;;;;;5116127;27;19963;-33
2024/01/18 12:02:46;;;;;;;;;;;2.70;99.90;;;;;;5134904;27;19991;-33
2024/01/18 12:05:13;;;;;;;;;;;2.60;99.90;;;;;;5116370;27;19931;-33
2024/01/18 12:07:40;;;;;;;;;;;2.50;99.90;;;;;;5115012;27;19924;-34
2024/01/18 12:10:09;;;;;;;;;;;2.50;99.90;;;;;;5116474;27;19931;-32
2024/01/18 12:12:35;;;;;;;;;;;2.50;99.90;;;;;;5115901;27;19963;-32
2024/01/18 12:15:03;;;;;;;;;;;2.40;99.90;;;;;;5115072;27;19923;-33
2024/01/18 12:17:30;;;;;;;;;;;2.30;99.90;;;;;;5111576;27;20385;-31
2024/01/18 12:19:56;;;;;;;;;;;2.20;99.90;;;;;;5109950;27;19927;-32
2024/01/18 12:22:25;;;;;;;;;;;2.20;99.90;;;;;;5131104;27;19996;-31
2024/01/18 12:24:52;;;;;;;;;;;2.20;99.90;;;;;;5114864;27;19929;-32
2024/01/18 12:27:20;;;;;;;;;;;2.30;99.90;;;;;;5114670;27;19931;-32
2024/01/18 12:29:47;;;;;;;;;;;2.40;99.90;;;;;;5110395;27;19953;-32
2024/01/18 12:32:16;;;;;;;;;;;2.50;99.90;;;;;;5114396;27;19935;-32
2024/01/18 12:34:43;;;;;;;;;;;2.60;99.90;;;;;;5113767;27;19931;-32
2024/01/18 12:37:11;;;;;;;;;;;2.60;99.90;;;;;;5114927;27;19924;-32
2024/01/18 12:39:38;;;;;;;;;;;2.60;99.90;;;;;;5133881;27;19984;-32
2024/01/18 12:42:05;;;;;;;;;;;2.70;99.90;;;;;;5115169;27;19927;-33
2024/01/18 12:44:33;;;;;;;;;;;2.70;99.90;;;;;;5115114;27;19924;-35
2024/01/18 12:47:00;;;;;;;;;;;2.70;99.90;;;;;;5115129;27;19924;-33
2024/01/18 12:49:26;;;;;;;;;;;2.80;99.90;;;;;;5114634;27;19927;-32
2024/01/18 12:51:53;;;;;;;;;;;2.80;99.90;;;;;;5115147;27;19924;-33
2024/01/18 12:54:20;;;;;;;;;;;2.90;99.90;;;;;;5130967;27;19924;-33
2024/01/18 12:56:48;;;;;;;;;;;2.80;99.90;;;;;;5113973;27;20018;-31
2024/01/18 12:59:15;;;;;;;;;;;2.90;99.90;;;;;;5113848;27;19931;-32
2024/01/18 13:01:43;;;;;;;;;;;3.00;99.90;;;;;;5128347;27;19988;-33
2024/01/18 13:04:10;;;;;;;;;;;3.00;99.90;;;;;;5113847;27;19923;-32
2024/01/18 13:06:37;;;;;;;;;;;3.10;99.90;;;;;;5113956;27;19924;-31
2024/01/18 13:09:04;;;;;;;;;;;3.10;99.90;;;;;;5115254;27;19928;-32
2024/01/18 13:11:31;;;;;;;;;;;3.20;99.90;;;;;;5114549;27;20026;-32
2024/01/18 13:13:58;;;;;;;;;;;3.20;99.90;;;;;;5115389;27;19974;-31
2024/01/18 13:16:27;;;;;;;;;;;3.20;99.90;;;;;;5114696;28;20204;-31
2024/01/18 13:18:58;;;;;;;;;;;3.30;99.90;;;;;;5133002;27;19924;-32
2024/01/18 13:21:25;;;;;;;;;;;3.40;99.90;;;;;;5115396;27;19927;-32
2024/01/18 13:23:52;;;;;;;;;;;3.40;99.90;;;;;;5114523;28;20423;-33
2024/01/18 13:26:18;;;;;;;;;;;3.40;99.90;;;;;;5113958;28;19968;-32
2024/01/18 13:28:45;;;;;;;;;;;3.40;99.90;;;;;;5133296;27;19981;-31
2024/01/18 13:31:11;;;;;;;;;;;3.50;99.90;;;;;;5114440;27;19931;-32
2024/01/18 13:33:38;;;;;;;;;;;3.40;99.90;;;;;;5109761;28;20366;-32
2024/01/18 13:36:07;;;;;;;;;;;3.50;99.90;;;;;;5114244;28;19938;-34
2024/01/18 13:38:34;;;;;;;;;;;3.50;99.90;;;;;;5117151;28;20298;-33
2024/01/18 13:41:01;;;;;;;;;;;3.50;99.90;;;;;;5094620;28;19930;-33
2024/01/18 13:43:27;;;;;;;;;;;3.50;99.90;;;;;;5094617;28;19927;-32
2024/01/18 13:45:54;;;;;;;;;;;3.50;99.90;;;;;;5127680;28;19963;-32
2024/01/18 13:48:20;;;;;;;;;;;3.50;99.90;;;;;;5113999;28;20327;-32
2024/01/18 13:50:47;;;;;;;;;;;3.60;99.90;;;;;;5113438;28;19961;-33
2024/01/18 13:53:18;;;;;;;;;;;3.60;99.90;;;;;;5114039;28;19924;-33
2024/01/18 13:55:45;;;;;;;;;;;3.60;99.90;;;;;;5112816;28;19924;-33
2024/01/18 13:58:11;;;;;;;;;;;3.50;99.90;;;;;;5132503;28;19923;-32
2024/01/18 14:00:38;;;;;;;;;;;3.60;99.90;;;;;;5113995;28;19924;-33
2024/01/18 14:03:06;;;;;;;;;;;3.50;99.90;;;;;;5094015;28;19923;-32
2024/01/18 14:05:33;;;;;;;;;;;3.60;99.90;;;;;;5104885;28;20063;-33
2024/01/18 14:08:00;;;;;;;;;;;3.60;99.90;;;;;;5114053;28;20420;-32
2024/01/18 14:10:28;;;;;;;;;;;3.60;99.90;;;;;;5113652;28;19980;-33
2024/01/18 14:12:54;;;;;;;;;;;3.60;99.90;;;;;;5114425;28;19923;-33
2024/01/18 14:15:21;;;;;;;;;;;3.50;99.90;;;;;;5132659;28;19978;-32
2024/01/18 14:17:47;;;;;;;;;;;3.40;99.90;;;;;;5114817;28;19923;-33
2024/01/18 14:20:14;;;;;;;;;;;3.40;99.90;;;;;;5132775;28;20039;-34